Time;durP1;ratioP1;P1;durP2;ratioP2;P2;SDS_P1;SDS_P2;PMS_P1;PMS_P2;Temp;Humidity;BMP_temperature;BMP_pressure;BME280_temperature;BME280_humidity;BME280_pressure;Samples;Min_cycle;Max_cycle;Signal;HPM_P1;HPM_P2
2023/09/03 00:01:35;;;;;;;9.83;8.80;;;;;;;21.52;66.40;95388.84;5076581;28;20446;-86
2023/09/03 00:04:02;;;;;;;9.73;8.40;;;;;;;21.48;67.06;95382.22;5076409;28;20444;-85
2023/09/03 00:06:30;;;;;;;11.10;10.03;;;;;;;21.50;66.83;95382.03;5076091;28;20449;-85
2023/09/03 00:08:57;;;;;;;9.77;8.87;;;;;;;21.61;67.02;95389.56;5076278;28;20768;-85
2023/09/03 00:11:24;;;;;;;9.83;8.93;;;;;;;21.69;66.46;95391.31;5076276;28;20444;-86
2023/09/03 00:13:51;;;;;;;9.77;8.73;;;;;;;21.72;66.00;95393.63;5057358;28;20478;-86
2023/09/03 00:16:17;;;;;;;10.20;9.10;;;;;;;21.69;65.53;95386.81;5076233;28;20454;-86
2023/09/03 00:18:44;;;;;;;11.67;9.93;;;;;;;21.77;65.50;95391.22;5076004;28;20443;-86
2023/09/03 00:21:11;;;;;;;9.87;8.83;;;;;;;21.81;65.37;95385.28;5075880;28;20443;-85
2023/09/03 00:23:40;;;;;;;10.63;9.23;;;;;;;21.83;65.07;95379.75;5075878;28;20484;-85
2023/09/03 00:26:06;;;;;;;9.87;8.87;;;;;;;21.84;65.31;95386.75;5076157;28;20471;-86
2023/09/03 00:28:33;;;;;;;9.23;8.43;;;;;;;21.77;64.98;95380.53;5024397;28;20450;-84
2023/09/03 00:31:02;;;;;;;10.47;9.47;;;;;;;21.83;64.53;95385.09;5076014;28;20436;-86
2023/09/03 00:33:29;;;;;;;10.03;9.03;;;;;;;21.86;64.20;95387.41;5075476;28;20913;-85
2023/09/03 00:35:55;;;;;;;10.67;9.57;;;;;;;21.90;64.43;95394.84;5076068;28;20442;-86
2023/09/03 00:38:22;;;;;;;10.40;9.33;;;;;;;21.88;64.68;95388.03;5075723;28;20442;-86
2023/09/03 00:40:51;;;;;;;11.40;10.27;;;;;;;21.78;65.76;95382.19;5076332;28;20448;-84
2023/09/03 00:43:18;;;;;;;10.80;9.47;;;;;;;21.73;65.92;95380.06;5077787;28;20442;-86
2023/09/03 00:45:46;;;;;;;9.50;8.57;;;;;;;21.76;65.84;95382.38;5076481;28;20438;-85
2023/09/03 00:48:15;;;;;;;10.67;9.57;;;;;;;21.62;66.42;95386.69;5074993;28;20443;-86
2023/09/03 00:50:42;;;;;;;12.33;9.63;;;;;;;21.53;66.97;95387.00;5076144;28;20433;-86
2023/09/03 00:53:10;;;;;;;10.77;9.60;;;;;;;21.53;66.95;95378.97;5076105;28;21032;-85
2023/09/03 00:55:38;;;;;;;9.30;8.50;;;;;;;21.52;66.95;95378.16;5075523;28;20458;-86
2023/09/03 00:58:07;;;;;;;9.90;8.90;;;;;;;21.57;67.27;95378.41;5075116;28;20529;-85
2023/09/03 01:00:35;;;;;;;9.67;8.77;;;;;;;21.47;67.13;95367.19;5075298;28;20481;-86
2023/09/03 01:03:04;;;;;;;10.97;9.97;;;;;;;21.51;67.36;95373.81;5074919;28;20883;-86
2023/09/03 01:05:31;;;;;;;10.70;9.70;;;;;;;21.40;67.94;95374.31;5075436;28;20453;-85
2023/09/03 01:08:00;;;;;;;12.23;10.13;;;;;;;21.39;68.25;95372.63;5075033;28;20924;-83
2023/09/03 01:10:35;;;;;;;9.97;9.07;;;;;;;21.42;67.96;95366.94;5075133;28;20445;-86
2023/09/03 01:13:12;;;;;;;11.13;9.87;;;;;;;21.46;67.62;95367.38;5075122;28;21009;-85
2023/09/03 01:15:44;;;;;;;11.83;9.87;;;;;;;21.46;67.95;95370.88;5075683;28;20443;-85
2023/09/03 01:18:17;;;;;;;13.93;10.23;;;;;;;21.44;68.01;95366.75;5074837;28;20445;-84
2023/09/03 01:20:55;;;;;;;11.10;9.90;;;;;;;21.40;68.12;95368.13;5075138;28;20894;-85
2023/09/03 01:23:34;;;;;;;13.10;9.30;;;;;;;21.23;68.28;95348.75;5057293;28;20436;-85
2023/09/03 01:26:12;;;;;;;11.30;10.10;;;;;;;21.33;68.46;95373.34;5074962;28;20475;-86
2023/09/03 01:28:41;;;;;;;12.63;10.40;;;;;;;21.33;68.23;95374.19;5085408;28;20452;-86
2023/09/03 01:31:11;;;;;;;10.10;9.20;;;;;;;21.32;67.80;95374.38;5083217;28;20453;-85
2023/09/03 01:33:39;;;;;;;10.43;8.80;;;;;;;21.26;68.16;95372.44;5075331;28;20507;-86
2023/09/03 01:36:07;;;;;;;11.40;9.60;;;;;;;21.26;68.18;95370.59;5075130;28;20439;-86
2023/09/03 01:38:34;;;;;;;11.47;9.70;;;;;;;21.27;68.16;95360.75;5075122;28;20447;-86
2023/09/03 01:41:02;;;;;;;10.80;9.70;;;;;;;21.19;68.42;95361.66;5023277;28;20445;-85
2023/09/03 01:43:29;;;;;;;11.33;10.20;;;;;;;21.23;68.54;95365.63;5074610;28;20935;-86
2023/09/03 01:46:04;;;;;;;10.53;9.43;;;;;;;21.25;68.52;95360.13;5074833;28;20440;-85
2023/09/03 01:48:45;;;;;;;12.30;9.70;;;;;;;21.26;68.77;95361.75;5074258;28;20483;-86
2023/09/03 01:51:29;;;;;;;10.80;9.70;;;;;;;21.18;69.06;95360.00;5074893;28;20500;-85
2023/09/03 01:54:07;;;;;;;11.87;10.67;;;;;;;21.13;69.29;95359.72;5074452;28;20488;-86
2023/09/03 01:56:41;;;;;;;10.33;9.33;;;;;;;21.14;69.44;95364.03;5074829;28;20497;-85
2023/09/03 01:59:16;;;;;;;11.30;9.53;;;;;;;21.08;69.23;95369.25;5056701;28;20466;-86
2023/09/03 02:01:45;;;;;;;11.27;10.17;;;;;;;21.04;69.49;95363.47;5074818;28;20528;-86
2023/09/03 02:04:12;;;;;;;12.13;9.13;;;;;;;20.97;69.36;95362.53;5074121;28;20923;-85
2023/09/03 02:06:38;;;;;;;10.87;9.50;;;;;;;20.94;69.78;95366.41;5074044;28;20785;-85
2023/09/03 02:09:06;;;;;;;10.40;9.30;;;;;;;20.90;69.91;95370.47;5074217;28;20787;-86
2023/09/03 02:11:32;;;;;;;11.90;10.40;;;;;;;20.87;70.21;95362.81;5074233;28;20441;-85
2023/09/03 02:13:59;;;;;;;10.43;9.33;;;;;;;20.79;70.13;95360.22;5073969;28;20482;-85
2023/09/03 02:16:26;;;;;;;10.90;9.80;;;;;;;20.67;70.35;95356.34;5073897;28;20462;-86
2023/09/03 02:18:54;;;;;;;15.13;9.90;;;;;;;20.65;70.16;95369.84;5074023;28;20459;-86
2023/09/03 02:21:21;;;;;;;10.53;9.53;;;;;;;20.55;70.70;95368.44;5074159;28;20441;-85
2023/09/03 02:23:48;;;;;;;11.03;9.80;;;;;;;20.45;70.96;95359.84;5073885;28;20945;-84
2023/09/03 02:26:15;;;;;;;10.90;9.80;;;;;;;20.40;71.44;95363.06;5073940;28;20909;-85
2023/09/03 02:28:41;;;;;;;10.50;9.50;;;;;;;20.32;71.51;95366.59;5073785;28;20785;-82
2023/09/03 02:31:08;;;;;;;12.73;11.30;;;;;;;20.30;71.73;95363.28;5074306;28;20442;-86
2023/09/03 02:33:35;;;;;;;10.70;9.60;;;;;;;20.19;71.84;95357.50;5073768;28;20494;-85
2023/09/03 02:36:04;;;;;;;11.17;9.47;;;;;;;20.19;71.30;95360.19;5073908;28;20446;-85
2023/09/03 02:38:30;;;;;;;11.43;10.33;;;;;;;20.20;71.35;95365.34;5074205;28;20474;-85
2023/09/03 02:40:57;;;;;;;11.30;10.20;;;;;;;20.21;71.67;95361.66;5021936;28;20452;-83
2023/09/03 02:43:24;;;;;;;11.70;9.43;;;;;;;20.28;71.59;95367.97;5073512;28;20440;-86
2023/09/03 02:45:51;;;;;;;10.43;9.37;;;;;;;20.31;71.68;95366.78;5073744;28;20447;-86
2023/09/03 02:48:18;;;;;;;10.50;9.43;;;;;;;20.37;71.88;95372.22;5022136;28;20444;-85
2023/09/03 02:50:45;;;;;;;11.57;10.37;;;;;;;20.41;71.33;95370.88;5073654;28;20441;-86
2023/09/03 02:53:13;;;;;;;13.53;10.40;;;;;;;20.42;71.33;95374.38;5073728;28;20952;-85
2023/09/03 02:55:40;;;;;;;10.03;8.87;;;;;;;20.44;71.31;95366.19;5073517;28;20441;-86
2023/09/03 02:58:07;;;;;;;10.20;9.30;;;;;;;20.44;70.93;95375.03;5073607;28;20872;-86
2023/09/03 03:00:35;;;;;;;10.70;9.63;;;;;;;20.48;70.78;95383.47;5073324;28;20446;-85
2023/09/03 03:03:02;;;;;;;9.97;8.80;;;;;;;20.47;70.92;95384.50;5073429;28;20446;-86
2023/09/03 03:05:28;;;;;;;11.37;10.03;;;;;;;20.47;70.96;95376.50;5021868;28;20448;-86
2023/09/03 03:07:58;;;;;;;10.07;9.07;;;;;;;20.44;70.86;95377.69;5072955;28;20444;-85
2023/09/03 03:10:27;;;;;;;10.70;9.60;;;;;;;20.41;70.60;95376.22;5073416;28;20509;-86
2023/09/03 03:12:53;;;;;;;10.70;9.60;;;;;;;20.42;70.90;95369.88;5073307;28;20488;-85
2023/09/03 03:15:20;;;;;;;12.57;9.77;;;;;;;20.42;70.68;95367.19;5073668;28;20433;-86
2023/09/03 03:17:47;;;;;;;11.13;10.03;;;;;;;20.41;71.12;95354.06;5073904;28;20437;-86
2023/09/03 03:20:14;;;;;;;12.43;10.03;;;;;;;20.41;70.91;95362.06;5073593;28;20457;-85
2023/09/03 03:22:40;;;;;;;12.07;9.97;;;;;;;20.40;71.19;95355.88;5073592;28;20484;-86
2023/09/03 03:25:08;;;;;;;11.33;10.23;;;;;;;20.37;71.29;95360.72;5074264;28;20482;-86
2023/09/03 03:27:37;;;;;;;11.97;10.50;;;;;;;20.37;71.21;95353.56;5022373;28;20446;-85
2023/09/03 03:30:06;;;;;;;10.97;9.87;;;;;;;20.29;70.99;95353.63;5073542;28;20444;-85
2023/09/03 03:32:33;;;;;;;12.27;10.00;;;;;;;20.20;70.70;95360.00;5021551;28;20927;-85
2023/09/03 03:35:00;;;;;;;9.90;8.90;;;;;;;20.16;71.31;95360.53;5073092;28;20452;-85
2023/09/03 03:37:26;;;;;;;11.23;9.60;;;;;;;20.10;71.28;95359.41;5075733;28;20445;-86
2023/09/03 03:39:53;;;;;;;10.43;9.43;;;;;;;19.99;71.52;95365.16;5094031;28;20863;-86
2023/09/03 03:42:20;;;;;;;8.63;7.77;;;;;;;19.95;72.25;95361.16;5094641;28;20444;-85
2023/09/03 03:44:48;;;;;;;9.77;8.67;;;;;;;19.95;72.20;95350.50;5094561;28;20444;-85
2023/09/03 03:47:15;;;;;;;10.90;9.67;;;;;;;19.92;72.48;95356.19;5093605;28;20446;-85
2023/09/03 03:49:42;;;;;;;10.67;9.27;;;;;;;19.87;72.50;95355.91;5094181;28;20807;-85
2023/09/03 03:52:09;;;;;;;15.50;9.10;;;;;;;19.89;72.26;95361.88;5041746;28;20495;-85
2023/09/03 03:54:36;;;;;;;10.97;9.90;;;;;;;19.85;73.04;95357.91;5093975;28;20494;-85
2023/09/03 03:57:03;;;;;;;11.70;10.50;;;;;;;19.83;72.83;95357.25;5096772;28;20439;-85
2023/09/03 03:59:30;;;;;;;10.30;9.27;;;;;;;19.83;72.91;95359.91;5061402;28;21012;-85
2023/09/03 04:01:59;;;;;;;10.63;9.53;;;;;;;19.77;73.16;95348.97;5096632;28;20816;-84
2023/09/03 04:04:26;;;;;;;11.80;9.80;;;;;;;19.80;73.08;95353.13;5097119;28;20445;-86
2023/09/03 04:06:52;;;;;;;11.17;8.97;;;;;;;19.71;73.52;95352.34;5061704;28;20926;-85
2023/09/03 04:09:19;;;;;;;12.30;9.00;;;;;;;19.72;73.27;95356.66;5104559;28;20438;-85
2023/09/03 04:11:48;;;;;;;10.27;9.33;;;;;;;19.72;73.73;95367.31;5104360;28;20482;-85
2023/09/03 04:14:15;;;;;;;10.10;9.17;;;;;;;19.80;73.28;95374.41;5099331;28;20475;-85
2023/09/03 04:16:42;;;;;;;9.93;9.03;;;;;;;19.89;73.29;95370.69;5096556;28;20447;-86
2023/09/03 04:19:11;;;;;;;14.43;9.50;;;;;;;19.91;73.15;95367.84;5097220;28;20455;-85
2023/09/03 04:21:38;;;;;;;10.23;9.17;;;;;;;19.95;72.88;95366.50;5096877;28;20816;-85
2023/09/03 04:24:06;;;;;;;10.03;9.00;;;;;;;20.16;73.18;95373.88;5096483;28;20443;-85
2023/09/03 04:26:33;;;;;;;9.90;8.90;;;;;;;20.50;72.05;95368.97;5096522;28;20440;-85
2023/09/03 04:29:00;;;;;;;16.80;9.93;;;;;;;21.08;70.05;95372.75;5096366;28;20938;-86
2023/09/03 04:31:27;;;;;;;8.97;8.10;;;;;;;21.57;67.44;95373.06;5044541;28;20786;-87
2023/09/03 04:33:54;;;;;;;9.57;8.67;;;;;;;22.07;65.61;95376.78;5096527;28;20488;-84
2023/09/03 04:36:22;;;;;;;9.57;8.67;;;;;;;22.57;64.17;95364.34;5097693;28;20500;-86
2023/09/03 04:38:49;;;;;;;9.23;8.33;;;;;;;23.01;62.43;95368.63;5096547;28;20532;-86
2023/09/03 04:41:16;;;;;;;10.20;9.30;;;;;;;23.35;61.27;95362.44;5076138;28;20454;-85
2023/09/03 04:43:45;;;;;;;8.93;8.13;;;;;;;23.78;60.82;95365.81;5085515;28;20447;-87
2023/09/03 04:46:12;;;;;;;9.40;8.40;;;;;;;24.64;57.68;95360.69;5090787;28;20439;-86
2023/09/03 04:48:38;;;;;;;10.47;8.77;;;;;;;25.09;56.40;95371.66;5096422;28;20451;-86
2023/09/03 04:51:07;;;;;;;9.20;8.30;;;;;;;25.52;55.35;95370.13;5096570;28;20523;-85
2023/09/03 04:53:35;;;;;;;15.30;10.07;;;;;;;25.64;54.12;95363.06;5095858;28;20495;-86
2023/09/03 04:56:03;;;;;;;9.57;8.67;;;;;;;25.81;55.17;95362.63;5096457;28;20436;-87
2023/09/03 04:58:29;;;;;;;10.20;9.20;;;;;;;26.16;60.84;95355.03;5096762;28;20472;-86
2023/09/03 05:00:57;;;;;;;11.23;9.00;;;;;;;26.34;58.20;95355.16;5096605;28;20451;-87
2023/09/03 05:03:23;;;;;;;14.90;9.80;;;;;;;26.51;54.01;95348.19;5044397;28;20814;-86
2023/09/03 05:05:50;;;;;;;10.87;9.67;;;;;;;26.16;53.54;95347.78;5095062;28;20946;-87
2023/09/03 05:08:17;;;;;;;10.07;9.07;;;;;;;25.77;53.82;95339.91;5096148;28;20466;-86
2023/09/03 05:10:45;;;;;;;10.67;9.60;;;;;;;25.13;55.21;95344.16;5096289;28;20922;-86
2023/09/03 05:13:12;;;;;;;13.30;11.97;;;;;;;25.02;55.99;95337.56;5107065;28;20486;-86
2023/09/03 05:15:41;;;;;;;12.13;10.93;;;;;;;25.14;56.14;95351.19;5107543;28;20452;-87
2023/09/03 05:18:08;;;;;;;11.40;10.27;;;;;;;25.06;55.84;95343.34;5097415;28;20435;-87
2023/09/03 05:20:37;;;;;;;12.40;11.17;;;;;;;25.13;55.94;95344.16;5099620;28;20416;-86
2023/09/03 05:23:04;;;;;;;12.03;10.73;;;;;;;24.97;56.57;95345.41;5094750;28;20447;-88
2023/09/03 05:25:31;;;;;;;15.93;10.97;;;;;;;24.87;57.15;95333.44;5095482;28;20879;-86
2023/09/03 05:28:00;;;;;;;11.63;10.43;;;;;;;24.88;57.72;95340.47;5096636;28;20455;-86
2023/09/03 05:30:26;;;;;;;11.40;10.07;;;;;;;24.82;57.53;95334.03;5096387;28;20440;-87
2023/09/03 05:32:53;;;;;;;12.17;10.73;;;;;;;24.53;58.52;95335.28;5095455;28;20493;-86
2023/09/03 05:35:20;;;;;;;12.53;11.33;;;;;;;24.61;59.93;95335.09;5095355;28;20941;-87
2023/09/03 05:37:47;;;;;;;12.83;11.10;;;;;;;24.75;57.60;95332.41;5095405;28;20443;-87
2023/09/03 05:40:14;;;;;;;11.60;10.27;;;;;;;24.65;58.67;95322.91;5095265;28;20432;-87
2023/09/03 05:42:41;;;;;;;11.77;10.67;;;;;;;24.74;58.70;95336.13;5102370;28;20479;-88
2023/09/03 05:45:10;;;;;;;15.40;11.27;;;;;;;25.27;58.60;95335.06;5115288;28;20435;-86
2023/09/03 05:47:38;;;;;;;12.70;11.03;;;;;;;25.75;56.95;95340.13;5060059;28;20447;-87
2023/09/03 05:50:06;;;;;;;12.53;11.40;;;;;;;25.76;57.98;95344.47;5095423;28;20462;-87
2023/09/03 05:52:33;;;;;;;12.43;11.23;;;;;;;26.13;55.80;95331.25;5095029;28;20472;-87
2023/09/03 05:55:00;;;;;;;11.47;10.47;;;;;;;26.24;54.20;95344.00;5094834;28;20502;-88
2023/09/03 05:57:26;;;;;;;10.67;9.67;;;;;;;26.48;54.37;95348.63;5095310;28;20919;-88
2023/09/03 05:59:54;;;;;;;11.67;10.50;;;;;;;26.70;53.27;95345.59;5094430;28;20452;-87
2023/09/03 06:02:23;;;;;;;12.03;10.83;;;;;;;26.71;52.82;95352.63;5043261;28;20648;-87
2023/09/03 06:04:50;;;;;;;13.43;10.80;;;;;;;26.72;53.11;95346.19;5042942;28;20853;-87
2023/09/03 06:07:20;;;;;;;12.47;11.13;;;;;;;26.78;52.37;95354.22;5083767;28;20796;-88
2023/09/03 06:09:47;;;;;;;15.40;11.43;;;;;;;26.79;51.67;95357.75;5074675;28;20456;-89
2023/09/03 06:12:15;;;;;;;12.30;11.17;;;;;;;27.06;51.38;95363.75;5075511;28;20444;-88
2023/09/03 06:14:42;;;;;;;11.30;10.10;;;;;;;27.16;52.05;95361.38;5094937;28;20852;-89
2023/09/03 06:17:09;;;;;;;12.63;11.07;;;;;;;27.10;50.79;95363.09;5095396;28;20444;-88
2023/09/03 06:19:37;;;;;;;16.33;11.50;;;;;;;27.01;51.43;95364.44;5094779;28;20459;-90
2023/09/03 06:22:05;;;;;;;12.83;11.60;;;;;;;27.04;50.69;95361.28;5094588;28;20456;-88
2023/09/03 06:24:31;;;;;;;12.37;10.40;;;;;;;26.97;51.61;95363.19;5074420;28;20449;-88
2023/09/03 06:26:58;;;;;;;15.83;11.70;;;;;;;26.79;51.28;95363.13;5089315;28;20465;-86
2023/09/03 06:29:26;;;;;;;11.43;9.83;;;;;;;26.90;52.68;95364.31;5080222;28;20448;-87
2023/09/03 06:31:53;;;;;;;11.40;9.80;;;;;;;26.70;52.10;95361.75;5074151;28;20448;-89
2023/09/03 06:34:21;;;;;;;11.70;10.50;;;;;;;26.79;52.05;95365.81;5076727;28;20512;-85
2023/09/03 06:36:50;;;;;;;12.13;9.80;;;;;;;26.88;52.26;95364.50;5074118;28;20445;-85
2023/09/03 06:39:18;;;;;;;10.63;9.53;;;;;;;27.05;51.91;95375.59;5066727;28;20464;-85
2023/09/03 06:41:44;;;;;;;14.20;10.03;;;;;;;27.35;51.99;95373.03;5074001;28;20537;-87
2023/09/03 06:44:12;;;;;;;10.53;9.63;;;;;;;27.52;50.11;95368.72;5022078;28;20455;-85
2023/09/03 06:46:39;;;;;;;11.00;10.00;;;;;;;27.68;51.18;95373.53;5073988;28;20491;-85
2023/09/03 06:49:05;;;;;;;12.33;9.13;;;;;;;27.66;49.94;95370.25;5072938;28;20957;-85
2023/09/03 06:51:32;;;;;;;10.97;9.97;;;;;;;27.68;49.86;95368.16;5072802;28;20456;-84
2023/09/03 06:54:01;;;;;;;11.60;10.40;;;;;;;27.32;50.57;95368.09;5072784;28;20723;-85
2023/09/03 06:56:28;;;;;;;13.27;10.50;;;;;;;27.19;51.56;95370.91;5072331;28;20441;-85
2023/09/03 06:58:55;;;;;;;16.13;10.87;;;;;;;27.03;51.54;95370.41;5072273;28;20789;-85
2023/09/03 07:01:22;;;;;;;10.13;9.13;;;;;;;26.93;52.26;95372.75;5072394;28;20441;-85
2023/09/03 07:03:49;;;;;;;13.57;9.90;;;;;;;27.06;52.25;95363.75;5072041;28;20451;-84
2023/09/03 07:06:15;;;;;;;12.40;10.60;;;;;;;26.99;51.86;95376.47;5072253;28;20444;-85
2023/09/03 07:08:42;;;;;;;11.57;10.37;;;;;;;27.04;52.31;95371.25;5072066;28;20812;-84
2023/09/03 07:11:11;;;;;;;11.30;10.13;;;;;;;27.12;51.97;95368.25;5072793;28;20445;-85
2023/09/03 07:13:57;;;;;;;11.77;10.60;;;;;;;27.31;51.94;95375.34;5073025;28;20441;-84
2023/09/03 07:16:30;;;;;;;13.43;10.60;;;;;;;27.36;50.59;95369.28;5010808;28;20442;-84
2023/09/03 07:18:58;;;;;;;11.40;10.30;;;;;;;27.06;51.82;95366.47;5010578;28;20939;-85
2023/09/03 07:21:27;;;;;;;15.40;10.10;;;;;;;26.97;51.90;95367.75;5010570;28;20538;-84
2023/09/03 07:23:56;;;;;;;10.47;9.37;;;;;;;27.01;52.27;95366.31;5010188;28;20454;-84
2023/09/03 07:26:24;;;;;;;10.90;9.90;;;;;;;27.20;51.98;95361.78;5010722;28;20843;-84
2023/09/03 07:28:51;;;;;;;11.20;9.73;;;;;;;27.35;50.98;95371.16;5010124;28;20939;-84
2023/09/03 07:31:18;;;;;;;10.40;9.33;;;;;;;27.39;50.70;95361.56;5013931;28;20450;-85
2023/09/03 07:33:45;;;;;;;12.20;9.17;;;;;;;27.63;51.23;95359.09;5013621;28;20443;-85
2023/09/03 07:36:12;;;;;;;10.20;9.30;;;;;;;27.92;50.01;95355.63;5014109;28;20447;-85
2023/09/03 07:38:39;;;;;;;10.57;9.57;;;;;;;28.11;49.21;95356.44;5013774;28;20544;-85
2023/09/03 07:41:06;;;;;;;11.17;9.83;;;;;;;28.28;48.30;95351.25;5047497;28;20935;-85
2023/09/03 07:43:35;;;;;;;15.60;9.83;;;;;;;28.45;48.52;95365.75;5076142;28;20978;-86
2023/09/03 07:46:02;;;;;;;10.70;9.70;;;;;;;28.57;48.19;95368.47;5023589;28;20942;-84
2023/09/03 07:48:29;;;;;;;11.53;10.17;;;;;;;28.69;47.61;95362.09;5075816;28;20432;-85
2023/09/03 07:50:56;;;;;;;9.40;8.50;;;;;;;28.79;47.17;95361.50;5075614;28;20822;-86
2023/09/03 07:53:22;;;;;;;11.83;9.43;;;;;;;28.86;47.75;95364.13;5075448;28;20472;-84
2023/09/03 07:55:49;;;;;;;10.30;9.00;;;;;;;28.91;47.06;95353.44;5075020;28;20484;-85
2023/09/03 07:58:16;;;;;;;9.30;8.40;;;;;;;28.85;47.08;95360.59;5075379;28;20440;-85
2023/09/03 08:00:45;;;;;;;12.83;8.70;;;;;;;29.11;46.69;95358.53;5075584;28;20949;-85
2023/09/03 08:03:12;;;;;;;10.17;8.63;;;;;;;29.26;46.47;95362.41;5075661;28;20479;-85
2023/09/03 08:05:38;;;;;;;15.50;10.10;;;;;;;29.19;44.84;95360.88;5075378;28;20447;-85
2023/09/03 08:08:05;;;;;;;10.80;9.10;;;;;;;29.36;45.03;95367.22;5075639;28;20979;-86
2023/09/03 08:10:32;;;;;;;10.70;9.07;;;;;;;29.57;44.62;95363.97;5057513;28;20436;-85
2023/09/03 08:12:59;;;;;;;9.73;8.63;;;;;;;29.78;44.46;95356.28;5075720;28;20444;-85
2023/09/03 08:15:26;;;;;;;20.47;8.10;;;;;;;29.90;44.54;95359.78;5075892;28;20487;-85
2023/09/03 08:17:54;;;;;;;7.93;7.23;;;;;;;29.87;43.64;95352.16;5074846;28;20957;-85
2023/09/03 08:20:21;;;;;;;15.40;8.67;;;;;;;30.09;43.28;95355.09;5075236;28;20801;-85
2023/09/03 08:22:48;;;;;;;9.20;8.40;;;;;;;30.20;41.26;95352.31;5075429;28;20448;-86
2023/09/03 08:25:15;;;;;;;8.70;7.90;;;;;;;30.41;39.92;95352.72;5023835;28;20445;-86
2023/09/03 08:27:43;;;;;;;10.47;8.77;;;;;;;30.62;41.12;95343.91;5075416;28;20433;-85
2023/09/03 08:30:11;;;;;;;8.83;7.93;;;;;;;30.91;39.65;95346.56;5075584;28;20445;-85
2023/09/03 08:32:38;;;;;;;9.63;8.63;;;;;;;31.12;40.05;95348.53;5074888;28;20445;-86
2023/09/03 08:35:07;;;;;;;8.27;7.57;;;;;;;30.96;37.76;95338.53;5077008;28;20845;-84
2023/09/03 08:37:34;;;;;;;8.73;7.90;;;;;;;31.05;37.87;95335.16;5075487;28;20466;-84
2023/09/03 08:40:01;;;;;;;10.33;7.80;;;;;;;30.88;37.74;95337.03;5074800;28;20460;-85
2023/09/03 08:42:29;;;;;;;7.00;6.40;;;;;;;30.83;37.58;95334.25;5075702;28;20443;-83
2023/09/03 08:45:02;;;;;;;10.13;8.27;;;;;;;30.81;38.87;95323.66;5024049;28;20448;-85
2023/09/03 08:47:30;;;;;;;7.97;7.27;;;;;;;30.92;38.26;95331.94;5075067;28;20444;-85
2023/09/03 08:49:58;;;;;;;7.77;7.07;;;;;;;30.87;38.19;95326.44;5075217;28;20448;-85
2023/09/03 08:52:27;;;;;;;8.57;7.77;;;;;;;30.87;36.85;95324.56;5081253;28;20476;-85
2023/09/03 08:54:55;;;;;;;7.83;7.03;;;;;;;30.42;35.12;95305.63;5037674;28;20476;-85
2023/09/03 08:57:28;;;;;;;8.80;8.00;;;;;;;30.41;35.45;95309.38;5081225;28;20444;-85
2023/09/03 08:59:56;;;;;;;10.07;7.90;;;;;;;30.53;36.21;95316.38;5077712;28;20444;-85
2023/09/03 09:02:24;;;;;;;10.13;7.93;;;;;;;30.63;37.21;95307.63;5075759;28;20445;-85
2023/09/03 09:04:50;;;;;;;8.13;7.53;;;;;;;30.63;35.57;95298.66;5074842;28;20857;-85
2023/09/03 09:07:19;;;;;;;8.10;7.33;;;;;;;30.71;35.62;95293.69;5074322;28;20978;-84
2023/09/03 09:09:49;;;;;;;7.30;6.40;;;;;;;30.64;34.96;95295.72;5074053;28;20444;-84
2023/09/03 09:12:22;;;;;;;10.80;8.40;;;;;;;30.68;35.60;95294.19;5074297;28;20436;-83
2023/09/03 09:14:54;;;;;;;7.90;7.10;;;;;;;30.66;35.10;95288.19;5074186;28;20483;-84
2023/09/03 09:17:21;;;;;;;7.57;6.97;;;;;;;30.46;35.11;95285.91;5074099;28;20851;-84
2023/09/03 09:19:48;;;;;;;7.20;6.50;;;;;;;30.20;34.03;95286.53;5073882;28;20441;-85
2023/09/03 09:22:15;;;;;;;7.33;6.67;;;;;;;29.65;36.15;95281.63;5074563;28;20958;-84
2023/09/03 09:24:43;;;;;;;8.27;7.40;;;;;;;29.64;36.45;95288.09;5074244;28;20452;-84
2023/09/03 09:27:16;;;;;;;7.83;7.13;;;;;;;29.60;35.77;95287.75;5024094;28;20460;-84
2023/09/03 09:29:44;;;;;;;7.47;6.50;;;;;;;29.80;35.15;95279.25;5074575;28;20524;-84
2023/09/03 09:32:19;;;;;;;7.13;6.53;;;;;;;29.45;34.08;95279.31;5074074;28;20804;-84
2023/09/03 09:34:48;;;;;;;7.40;6.73;;;;;;;29.71;35.62;95272.53;5073760;28;20488;-84
2023/09/03 09:37:18;;;;;;;7.57;6.87;;;;;;;30.04;35.57;95273.75;5073828;28;20449;-85
2023/09/03 09:39:45;;;;;;;7.43;6.37;;;;;;;30.12;34.51;95260.66;5073557;28;20437;-85
2023/09/03 09:42:18;;;;;;;7.77;7.00;;;;;;;30.37;34.19;95267.59;5073441;28;20448;-84
2023/09/03 09:44:59;;;;;;;7.33;6.60;;;;;;;30.63;33.06;95258.84;5073785;28;20499;-84
2023/09/03 09:47:26;;;;;;;9.73;6.70;;;;;;;30.67;32.21;95257.31;5073862;28;20448;-84
2023/09/03 09:49:53;;;;;;;6.93;6.33;;;;;;;30.78;33.02;95256.41;5073779;28;20444;-85
2023/09/03 09:52:20;;;;;;;7.60;6.90;;;;;;;30.81;32.59;95257.78;5073016;28;20485;-83
2023/09/03 09:54:49;;;;;;;8.23;7.43;;;;;;;30.89;32.67;95259.25;5073385;28;20472;-85
2023/09/03 09:57:19;;;;;;;8.10;6.90;;;;;;;30.38;32.17;95255.72;5073060;28;20436;-84
2023/09/03 09:59:52;;;;;;;6.80;6.30;;;;;;;30.33;32.33;95247.47;5073244;28;20861;-85
2023/09/03 10:02:21;;;;;;;7.83;6.93;;;;;;;30.42;32.22;95236.00;5073556;28;20453;-85
2023/09/03 10:04:50;;;;;;;6.87;6.37;;;;;;;30.45;31.22;95237.41;5073975;28;20528;-85
2023/09/03 10:07:17;;;;;;;10.40;7.80;;;;;;;30.43;32.22;95228.72;5073661;28;20445;-84
2023/09/03 10:09:45;;;;;;;6.93;6.33;;;;;;;30.37;33.08;95221.56;5073741;28;20437;-84
2023/09/03 10:12:12;;;;;;;7.20;6.50;;;;;;;30.30;33.08;95221.69;5073301;28;20947;-85
2023/09/03 10:14:39;;;;;;;7.40;6.73;;;;;;;30.14;33.11;95211.69;5072741;28;20825;-84
2023/09/03 10:17:08;;;;;;;7.27;6.60;;;;;;;30.14;32.82;95207.09;5073523;28;20710;-84
2023/09/03 10:19:42;;;;;;;7.03;6.07;;;;;;;30.13;32.50;95193.81;5073760;28;20456;-85
2023/09/03 10:22:13;;;;;;;7.60;7.00;;;;;;;30.18;32.92;95202.84;5073352;28;20476;-84
2023/09/03 10:24:42;;;;;;;7.27;6.67;;;;;;;29.91;33.20;95193.66;5073500;28;20479;-82
2023/09/03 10:27:13;;;;;;;6.10;5.60;;;;;;;29.79;33.55;95199.13;5072731;28;20445;-84
2023/09/03 10:29:44;;;;;;;7.07;6.00;;;;;;;29.79;32.91;95192.91;5038066;28;20528;-86
2023/09/03 10:32:13;;;;;;;6.67;6.07;;;;;;;29.65;30.57;95194.25;5073750;28;20448;-82
2023/09/03 10:34:42;;;;;;;6.77;5.50;;;;;;;29.75;32.23;95197.13;5077089;28;20494;-85
2023/09/03 10:37:10;;;;;;;7.33;6.40;;;;;;;29.89;32.32;95191.19;5084054;28;20454;-84
2023/09/03 10:39:40;;;;;;;9.03;6.13;;;;;;;29.90;29.89;95184.72;5079801;28;20449;-85
2023/09/03 10:42:29;;;;;;;6.37;5.77;;;;;;;29.87;30.47;95189.78;5093223;28;20452;-87
2023/09/03 10:44:57;;;;;;;6.40;5.90;;;;;;;29.78;31.14;95185.81;5081560;28;20512;-84
2023/09/03 10:47:23;;;;;;;5.17;4.77;;;;;;;29.72;31.43;95184.91;5077704;28;20500;-82
2023/09/03 10:49:53;;;;;;;6.90;6.30;;;;;;;29.73;32.41;95183.03;5030773;28;20436;-83
2023/09/03 10:52:40;;;;;;;5.57;5.07;;;;;;;29.75;30.32;95170.91;5093088;28;20486;-83
2023/09/03 10:55:10;;;;;;;7.20;5.40;;;;;;;29.48;30.39;95165.25;5002597;28;20577;-83
2023/09/03 10:57:37;;;;;;;8.27;5.20;;;;;;;29.61;30.70;95164.16;4992074;28;20448;-85
2023/09/03 11:00:08;;;;;;;5.47;5.07;;;;;;;29.72;30.70;95159.75;5000700;28;20788;-84
2023/09/03 11:02:36;;;;;;;5.30;4.90;;;;;;;29.80;30.18;95159.38;5011713;28;20443;-85
2023/09/03 11:05:20;;;;;;;5.77;5.17;;;;;;;29.92;30.86;95152.81;5013920;28;20455;-84
2023/09/03 11:07:48;;;;;;;6.07;5.47;;;;;;;30.02;30.48;95146.75;5015774;28;20473;-87
2023/09/03 11:10:40;;;;;;;5.33;4.90;;;;;;;30.04;30.95;95143.81;5015577;28;20444;-84
2023/09/03 11:13:14;;;;;;;5.70;5.20;;;;;;;29.83;29.89;95139.94;5015755;28;20444;-83
2023/09/03 11:15:55;;;;;;;5.77;5.27;;;;;;;29.95;30.71;95148.81;5015558;28;20498;-87
2023/09/03 11:18:23;;;;;;;9.67;6.27;;;;;;;30.09;31.22;95144.75;5016042;28;20451;-85
2023/09/03 11:20:52;;;;;;;5.43;4.93;;;;;;;30.26;29.84;95143.91;5015634;28;20439;-84
2023/09/03 11:23:19;;;;;;;6.63;5.97;;;;;;;30.32;33.04;95137.50;5015050;28;20447;-85
2023/09/03 11:25:46;;;;;;;10.53;6.00;;;;;;;30.40;33.15;95131.69;4976948;28;20463;-84
2023/09/03 11:28:14;;;;;;;8.33;6.23;;;;;;;30.41;34.47;95134.16;4995540;28;20445;-86
2023/09/03 11:30:43;;;;;;;6.80;6.20;;;;;;;30.25;33.41;95134.16;4995754;28;20535;-86
2023/09/03 11:33:22;;;;;;;5.40;5.00;;;;;;;30.19;33.87;95123.25;5088812;28;20443;-85